Amor, Minnesota
Current Conditions -  °F | °C
As of 7:14 PM on Sunday 23 Nov 2014 (Local Time) from KFFM Reporting Station
Overcast Overcast  
Wind Chill: -9°   Ceiling: 3000
Heat Index: -2°   Visibility: 10mi
Dew Point: -6°   Wind: 18mph
Humidity: 74%   Direction: 310°NW
Pressure: 29.53"   Gusts: NA
Location:  46.3166°N, 95.7183°W
Report Text: KFFM 240114Z AUTO 31016KT 10SM OVC030 M02/M06 A2953 RMK AO2
Loading
Personal Weather Stations






























Interactive Weather Map New forecast layout! Learn more

10-Day Weather Forecast

Advertisements
Track Severe Weather on mobile